Time;durP1;ratioP1;P1;durP2;ratioP2;P2;SDS_P1;SDS_P2;PMS_P1;PMS_P2;Temp;Humidity;BMP_temperature;BMP_pressure;BME280_temperature;BME280_humidity;BME280_pressure;Samples;Min_cycle;Max_cycle;Signal;HPM_P1;HPM_P2
2023/02/09 08:36:15;;;;;;;5.30;4.80;;;;;;;8.72;35.14;96554.69;6207951;22;1571805;-80
2023/02/09 08:38:41;;;;;;;5.05;4.65;;;;;;;8.40;35.06;96574.44;6258202;22;20023;-78
2023/02/09 08:41:08;;;;;;;4.30;3.90;;;;;;;9.92;33.27;96597.53;6282259;22;20465;-80
2023/02/09 08:43:34;;;;;;;4.88;4.45;;;;;;;10.27;32.76;96599.00;6183673;22;20021;-78
2023/02/09 08:46:07;;;;;;;4.22;3.83;;;;;;;9.92;32.79;96597.53;6213469;23;20091;-79
2023/02/09 08:48:34;;;;;;;3.95;3.65;;;;;;;9.53;33.25;96598.19;6211154;23;20004;-80
2023/02/09 08:51:00;;;;;;;4.00;3.70;;;;;;;9.82;32.58;96591.47;6212482;23;20008;-80
2023/02/09 08:53:26;;;;;;;4.55;4.22;;;;;;;8.40;35.54;96587.34;6213007;23;20039;-79
2023/02/09 08:55:51;;;;;;;4.60;4.20;;;;;;;8.37;35.81;96582.41;6185436;23;20004;-80
2023/02/09 08:58:16;;;;;;;5.00;4.57;;;;;;;9.07;34.74;96589.84;6187003;23;20464;-77
2023/02/09 09:00:42;;;;;;;4.40;4.00;;;;;;;7.07;36.34;96586.88;6209507;23;20412;-80
2023/02/09 09:03:07;;;;;;;4.15;3.85;;;;;;;8.35;35.15;96587.66;6216133;23;20046;-78
2023/02/09 09:05:34;;;;;;;4.03;3.67;;;;;;;9.10;33.36;96587.03;6213831;23;20039;-80
2023/02/09 09:07:59;;;;;;;4.53;4.13;;;;;;;9.27;32.87;96579.59;6221235;23;20027;-80
2023/02/09 09:10:24;;;;;;;4.20;3.80;;;;;;;8.07;34.01;96584.66;6239876;23;20023;-82
2023/02/09 09:15:25;;;;;;;3.75;3.45;;;;;;;9.25;32.98;96553.03;6168845;23;20021;-87
2023/02/09 09:17:51;;;;;;;4.75;3.35;;;;;;;10.58;31.75;96562.63;6177879;23;20123;-88
2023/02/09 09:20:16;;;;;;;3.53;3.22;;;;;;;10.48;31.34;96538.47;6214054;23;20005;-90
2023/02/09 09:27:52;;;;;;;3.70;3.40;;;;;;;10.03;31.76;96571.59;6202501;23;20040;-92
2023/02/09 09:30:18;;;;;;;5.43;2.50;;;;;;;10.19;29.63;96572.94;6180687;23;20451;-87
2023/02/09 09:38:07;;;;;;;3.50;1.93;;;;;;;7.51;74.95;96566.50;6079621;23;21149;-77
2023/02/09 09:45:44;;;;;;;1.83;1.70;;;;;;;5.46;33.28;96579.84;6114149;23;20914;-80
2023/02/09 09:48:21;;;;;;;2.25;1.85;;;;;;;6.66;34.14;96564.88;6048694;23;20029;-77
2023/02/09 09:50:47;;;;;;;2.10;1.90;;;;;;;6.07;32.89;96557.88;6167563;23;20010;-79
2023/02/09 09:53:30;;;;;;;2.13;1.98;;;;;;;5.42;33.96;96568.16;6144647;23;20072;-79
2023/02/09 09:55:58;;;;;;;2.30;2.10;;;;;;;6.41;31.57;96553.81;6165071;23;20063;-79
2023/02/09 09:58:24;;;;;;;2.08;1.85;;;;;;;5.15;34.81;96560.47;6144889;23;20276;-79
2023/02/09 10:00:50;;;;;;;2.20;2.00;;;;;;;4.63;34.03;96570.59;6143280;23;20024;-78
2023/02/09 10:03:17;;;;;;;2.70;1.60;;;;;;;6.70;32.91;96547.47;6162608;23;20404;-78
2023/02/09 10:05:44;;;;;;;2.92;2.00;;;;;;;6.00;33.83;96554.06;6115663;23;20006;-77
2023/02/09 10:08:09;;;;;;;2.13;1.92;;;;;;;6.33;35.11;96544.84;6112970;23;20036;-78
2023/02/09 10:10:47;;;;;;;3.58;1.75;;;;;;;5.62;34.26;96549.66;6112709;23;20006;-78
2023/02/09 10:13:25;;;;;;;2.05;1.60;;;;;;;5.90;33.74;96551.28;6110091;23;20041;-77
2023/02/09 10:15:56;;;;;;;1.50;1.40;;;;;;;5.58;33.40;96548.25;6072670;23;20190;-78
2023/02/09 10:18:24;;;;;;;2.67;1.63;;;;;;;6.34;31.73;96545.69;6111753;23;20006;-78
2023/02/09 10:21:09;;;;;;;1.50;1.40;;;;;;;6.49;33.88;96534.31;6111545;23;20448;-78
2023/02/09 10:23:42;;;;;;;2.95;1.55;;;;;;;4.81;34.55;96542.16;6113100;23;20014;-78
2023/02/09 10:26:08;;;;;;;2.22;1.52;;;;;;;6.65;32.49;96540.06;6126004;23;19998;-80
2023/02/09 10:28:48;;;;;;;1.95;1.75;;;;;;;6.98;32.49;96534.28;6133040;23;20098;-81
2023/02/09 10:31:33;;;;;;;1.67;1.52;;;;;;;7.19;34.35;96539.66;6131495;23;20009;-79
2023/02/09 10:34:05;;;;;;;2.45;2.10;;;;;;;5.16;35.76;96543.31;6138717;23;20449;-81
2023/02/09 10:36:36;;;;;;;2.50;1.80;;;;;;;2.02;39.64;96550.59;6143887;23;20108;-78
2023/02/09 10:39:23;;;;;;;2.38;1.95;;;;;;;2.33;39.80;96545.53;6143121;23;19990;-80
2023/02/09 10:41:53;;;;;;;1.60;1.50;;;;;;;3.87;38.76;96540.22;6146796;23;19986;-81
2023/02/09 10:44:33;;;;;;;2.38;1.80;;;;;;;2.95;40.54;96543.84;6126284;23;20122;-79
2023/02/09 10:47:11;;;;;;;2.13;1.80;;;;;;;3.15;40.57;96535.88;6120751;23;20005;-77
2023/02/09 10:49:38;;;;;;;2.22;1.92;;;;;;;4.00;38.40;96541.16;6121463;23;20010;-79
2023/02/09 10:52:24;;;;;;;2.80;2.15;;;;;;;1.96;42.44;96533.84;6117375;23;20089;-78
2023/02/09 10:54:59;;;;;;;2.97;2.17;;;;;;;2.16;39.76;96532.81;6115019;23;20005;-77
2023/02/09 10:57:33;;;;;;;2.50;2.30;;;;;;;3.49;39.46;96529.66;6088453;23;20014;-78
2023/02/09 11:00:01;;;;;;;4.05;2.10;;;;;;;4.16;39.91;96523.94;6124147;23;20057;-78
2023/02/09 11:02:40;;;;;;;3.45;2.20;;;;;;;4.01;38.98;96530.84;6114334;23;20454;-77
2023/02/09 11:05:26;;;;;;;3.38;2.17;;;;;;;3.03;41.45;96531.44;6110255;23;20032;-76
2023/02/09 11:08:02;;;;;;;2.08;1.90;;;;;;;2.87;40.51;96521.25;6113455;23;20334;-76
2023/02/09 11:10:29;;;;;;;4.60;3.55;;;;;;;3.27;39.97;96522.41;6113241;23;20526;-76
2023/02/09 11:12:56;;;;;;;2.42;2.13;;;;;;;3.38;39.22;96512.34;6113960;23;20093;-77
2023/02/09 11:15:27;;;;;;;3.58;2.03;;;;;;;4.09;37.33;96512.41;6112849;23;20329;-79
2023/02/09 11:18:01;;;;;;;3.60;2.92;;;;;;;3.67;38.19;96518.34;6113558;23;20006;-77
2023/02/09 11:20:34;;;;;;;2.95;2.20;;;;;;;3.25;40.76;96513.97;6114125;23;20353;-76
2023/02/09 11:23:31;;;;;;;3.05;2.67;;;;;;;3.10;39.68;96512.28;6088486;23;20040;-77
2023/02/09 11:26:18;;;;;;;2.85;2.00;;;;;;;3.44;38.94;96513.72;6119060;23;20021;-78
2023/02/09 11:29:23;;;;;;;3.72;3.35;;;;;;;3.80;42.10;96503.91;6122849;23;20026;-77
2023/02/09 11:31:53;;;;;;;2.95;2.67;;;;;;;3.49;42.35;96501.50;6114816;23;20483;-77
2023/02/09 11:34:53;;;;;;;3.83;2.65;;;;;;;3.59;41.13;96493.22;6121158;23;20089;-79
2023/02/09 11:37:41;;;;;;;6.78;3.90;;;;;;;1.94;45.54;96499.06;6119970;23;20344;-77
2023/02/09 11:40:25;;;;;;;4.50;4.00;;;;;;;3.03;46.33;96486.22;6124690;23;20017;-80
2023/02/09 11:43:07;;;;;;;5.05;3.60;;;;;;;3.17;47.40;96477.78;6136653;23;20316;-81
2023/02/09 11:45:41;;;;;;;6.32;4.70;;;;;;;3.17;50.34;96480.31;6121081;23;20022;-78
2023/02/09 11:48:21;;;;;;;4.68;3.92;;;;;;;2.79;47.16;96472.28;6131990;23;20006;-79
2023/02/09 11:51:10;;;;;;;8.27;4.80;;;;;;;2.65;47.47;96483.25;6126775;23;20016;-79
2023/02/09 11:53:38;;;;;;;4.07;2.75;;;;;;;1.99;46.40;96476.69;6123983;23;20077;-79
2023/02/09 11:56:07;;;;;;;4.45;2.47;;;;;;;2.74;42.98;96475.97;6127454;23;20045;-81
2023/02/09 11:58:41;;;;;;;2.93;2.50;;;;;;;2.27;41.56;96474.31;6098088;23;20057;-79
2023/02/09 12:01:31;;;;;;;2.10;1.90;;;;;;;2.18;40.56;96463.75;6120997;23;20088;-79
2023/02/09 12:04:08;;;;;;;2.63;1.90;;;;;;;2.29;40.51;96469.91;6134285;23;20002;-78
2023/02/09 12:07:01;;;;;;;3.85;2.10;;;;;;;2.86;42.09;96454.84;6120802;23;20006;-76
2023/02/09 12:09:47;;;;;;;3.15;2.20;;;;;;;2.54;40.82;96467.66;6132687;23;19998;-81
2023/02/09 12:12:36;;;;;;;3.92;1.90;;;;;;;2.45;40.81;96457.97;6120117;23;20096;-77
2023/02/09 12:15:13;;;;;;;4.47;2.35;;;;;;;2.10;40.70;96459.03;6135994;23;20002;-79
2023/02/09 12:17:57;;;;;;;2.67;1.92;;;;;;;2.33;40.86;96455.25;6124287;23;20002;-79
2023/02/09 12:20:23;;;;;;;4.82;4.30;;;;;;;2.76;46.57;96453.72;6146374;23;20075;-79
2023/02/09 12:22:54;;;;;;;7.35;5.07;;;;;;;2.31;49.89;96457.88;6141616;23;20006;-78
2023/02/09 13:40:49;;;;;;;6.85;6.05;;;;;;;0.70;57.95;96375.34;6117757;23;20517;-78
2023/02/09 13:43:25;;;;;;;7.30;5.28;;;;;;;0.94;58.00;96432.75;6215584;23;20013;-79
2023/02/09 13:45:55;;;;;;;6.78;5.50;;;;;;;0.56;59.29;96375.19;6223198;23;20012;-79
2023/02/09 13:48:27;;;;;;;7.30;5.65;;;;;;;0.36;59.49;96350.69;6230300;22;20008;-78
2023/02/09 13:50:58;;;;;;;5.90;5.30;;;;;;;0.77;59.41;96420.03;6229986;23;20016;-81
2023/02/09 13:53:25;;;;;;;6.32;5.65;;;;;;;0.56;60.17;96378.56;6229116;23;20025;-78
2023/02/09 13:55:53;;;;;;;8.02;5.75;;;;;;;0.49;61.23;96402.69;6226694;23;20103;-78
2023/02/09 13:58:31;;;;;;;7.18;6.10;;;;;;;0.51;59.54;96434.84;6226936;23;20015;-80
2023/02/09 14:00:59;;;;;;;6.70;5.57;;;;;;;0.16;60.75;96353.38;6220278;23;20007;-78
2023/02/09 14:03:36;;;;;;;9.70;6.18;;;;;;;0.26;60.78;96368.13;6166219;23;20005;-79
2023/02/09 14:06:16;;;;;;;9.48;5.70;;;;;;;0.11;61.02;96351.03;6188533;23;20005;-78
2023/02/09 14:08:43;;;;;;;7.35;6.18;;;;;;;0.11;62.18;96366.31;6187050;23;20001;-80
2023/02/09 14:11:36;;;;;;;9.55;6.68;;;;;;;0.35;62.84;96426.25;6176111;23;20005;-79
2023/02/09 14:14:13;;;;;;;9.88;6.10;;;;;;;-0.09;63.16;96351.16;6175477;23;20009;-78
2023/02/09 14:16:39;;;;;;;8.10;5.95;;;;;;;0.35;62.70;96415.28;6172216;23;20009;-79
2023/02/09 14:19:24;;;;;;;8.45;5.95;;;;;;;0.14;63.67;96419.66;6179729;23;20028;-80
2023/02/09 14:21:53;;;;;;;8.10;6.38;;;;;;;-0.12;64.64;96364.84;6176719;23;20005;-79
2023/02/09 14:24:21;;;;;;;9.83;5.87;;;;;;;0.05;64.16;96401.44;6178213;23;20468;-78
2023/02/09 14:26:53;;;;;;;7.22;6.40;;;;;;;0.16;65.76;96422.94;6181572;23;20236;-79
2023/02/09 14:29:18;;;;;;;8.05;6.75;;;;;;;0.04;66.14;96425.22;6175942;23;20005;-78
2023/02/09 14:31:49;;;;;;;7.60;6.25;;;;;;;0.02;66.11;96432.94;6175944;23;20071;-74
2023/02/09 14:34:27;;;;;;;11.57;6.68;;;;;;;0.04;66.86;96432.88;6168176;23;20025;-75
2023/02/09 14:36:55;;;;;;;8.68;6.40;;;;;;;0.05;68.12;96434.53;6173917;23;20020;-77
2023/02/09 14:39:22;;;;;;;9.87;6.73;;;;;;;-0.10;66.49;96431.78;6171891;23;20018;-79
2023/02/09 14:41:56;;;;;;;9.18;6.88;;;;;;;-0.15;66.73;96426.06;6172573;23;20013;-78
2023/02/09 14:44:22;;;;;;;11.65;7.30;;;;;;;-0.21;65.40;96423.81;6174642;23;20463;-78
2023/02/09 14:47:26;;;;;;;8.15;6.45;;;;;;;-0.31;66.09;96427.66;6174121;23;20408;-78
2023/02/09 14:49:51;;;;;;;11.35;7.75;;;;;;;-0.41;66.10;96413.69;6173868;23;20513;-79
2023/02/09 14:52:17;;;;;;;15.40;7.65;;;;;;;-0.45;67.64;96419.00;6174270;23;20008;-78
2023/02/09 14:54:47;;;;;;;9.35;7.60;;;;;;;-0.60;68.22;96423.03;6174355;23;20352;-79
2023/02/09 14:57:13;;;;;;;10.07;7.60;;;;;;;-0.57;68.86;96421.19;6172234;23;20796;-79
2023/02/09 14:59:38;;;;;;;9.85;7.75;;;;;;;-0.73;67.88;96414.28;6172458;23;20023;-79
2023/02/09 15:02:19;;;;;;;10.40;7.10;;;;;;;-0.75;69.15;96422.00;6173032;23;20005;-78
2023/02/09 15:04:45;;;;;;;8.95;6.68;;;;;;;-0.90;70.98;96422.63;6171653;23;20040;-78
2023/02/09 15:07:21;;;;;;;11.60;7.45;;;;;;;-1.02;70.78;96429.94;6173703;23;20012;-77
2023/02/09 15:09:47;;;;;;;9.20;6.78;;;;;;;-0.98;70.09;96427.22;6168647;23;20005;-77
2023/02/09 15:12:24;;;;;;;11.07;8.10;;;;;;;-1.01;72.23;96427.34;6169375;23;20031;-77
2023/02/09 15:14:52;;;;;;;13.52;6.90;;;;;;;-1.14;73.01;96428.75;6169806;23;20188;-78
2023/02/09 15:17:27;;;;;;;12.10;8.23;;;;;;;-1.22;74.36;96436.69;6166514;23;20084;-77
2023/02/09 15:19:53;;;;;;;11.23;8.15;;;;;;;-1.11;75.20;96432.00;6169078;23;20452;-77
2023/02/09 15:22:19;;;;;;;10.27;8.05;;;;;;;-1.17;73.60;96439.03;6166365;23;20005;-76
2023/02/09 15:24:47;;;;;;;10.75;8.00;;;;;;;-1.24;73.33;96452.88;6168327;23;20012;-76
2023/02/09 15:27:33;;;;;;;8.88;7.10;;;;;;;-1.35;73.36;96444.88;6170619;23;20306;-76
2023/02/09 15:29:59;;;;;;;9.70;7.22;;;;;;;-1.39;74.08;96456.03;6168150;23;20032;-76
2023/02/09 15:32:25;;;;;;;9.90;7.47;;;;;;;-1.50;72.70;96458.16;6170319;23;20013;-74
2023/02/09 15:34:52;;;;;;;9.48;6.78;;;;;;;-1.51;71.92;96461.63;6169143;23;20321;-77
2023/02/09 15:37:26;;;;;;;9.93;8.00;;;;;;;-1.75;71.85;96469.31;6169074;23;20020;-76
2023/02/09 15:39:57;;;;;;;11.15;7.10;;;;;;;-1.81;72.30;96468.72;6169419;23;20404;-75
2023/02/09 15:48:07;;;;;;;10.45;7.60;;;;;;;-2.10;75.84;96474.03;6168870;23;20614;-74
2023/02/09 15:50:35;;;;;;;9.45;7.55;;;;;;;-2.21;77.04;96471.91;6169286;23;20008;-74
2023/02/09 15:53:03;;;;;;;10.77;7.55;;;;;;;-2.33;80.08;96472.34;6166875;23;20009;-74
2023/02/09 15:55:29;;;;;;;11.95;7.85;;;;;;;-2.38;79.63;96475.06;6170259;23;20032;-75
2023/02/09 15:57:55;;;;;;;10.00;7.80;;;;;;;-2.28;77.74;96480.63;6168034;23;20009;-75
2023/02/09 16:00:26;;;;;;;9.77;7.70;;;;;;;-2.44;76.42;96480.34;6169209;23;20047;-75
2023/02/09 16:02:55;;;;;;;9.23;7.88;;;;;;;-2.52;78.34;96486.56;6169401;23;20005;-76
2023/02/09 16:05:22;;;;;;;8.80;7.28;;;;;;;-2.70;80.09;96496.44;6167218;23;20005;-75
2023/02/09 16:07:51;;;;;;;10.57;7.28;;;;;;;-2.62;81.11;96495.38;6169758;23;20036;-75
2023/02/09 16:10:25;;;;;;;11.30;7.57;;;;;;;-2.64;81.10;96507.28;6166824;23;20035;-74
2023/02/09 16:12:51;;;;;;;9.43;6.90;;;;;;;-2.74;80.97;96509.31;6168872;23;20059;-75
2023/02/09 16:15:24;;;;;;;11.32;7.55;;;;;;;-2.89;81.81;96523.28;6169651;23;20374;-75
2023/02/09 16:17:50;;;;;;;10.20;6.93;;;;;;;-3.03;82.95;96525.47;6168316;23;20037;-75
2023/02/09 16:20:18;;;;;;;13.32;8.23;;;;;;;-3.03;84.16;96522.94;6169049;23;20466;-75
2023/02/09 16:22:46;;;;;;;9.30;7.22;;;;;;;-2.93;83.59;96531.91;6166178;23;20648;-75
2023/02/09 16:25:30;;;;;;;9.85;6.90;;;;;;;-3.02;85.41;96522.06;6166855;23;20020;-75
2023/02/09 16:27:56;;;;;;;10.98;7.45;;;;;;;-3.13;85.65;96523.28;6164268;23;20009;-75
2023/02/09 16:30:28;;;;;;;11.23;8.00;;;;;;;-3.14;85.81;96522.44;6164489;23;20691;-74
2023/02/09 16:32:54;;;;;;;12.48;8.15;;;;;;;-3.20;85.54;96517.59;6164163;23;20016;-75
2023/02/09 16:35:21;;;;;;;26.63;13.25;;;;;;;-3.33;86.93;96506.19;6166176;23;20085;-75
2023/02/09 16:37:48;;;;;;;13.30;9.90;;;;;;;-3.58;88.79;96507.84;6167249;23;20004;-75
2023/02/09 16:40:23;;;;;;;10.82;7.30;;;;;;;-3.78;90.30;96499.16;6167982;23;20016;-73
2023/02/09 16:42:49;;;;;;;8.77;6.90;;;;;;;-3.75;90.66;96493.16;6170770;23;20013;-73
2023/02/09 16:45:15;;;;;;;10.57;6.68;;;;;;;-3.77;90.14;96485.63;6170663;23;20015;-74
2023/02/09 16:47:48;;;;;;;13.88;9.43;;;;;;;-3.55;91.62;96505.22;6171088;23;20005;-75
2023/02/09 16:50:19;;;;;;;15.85;10.35;;;;;;;-3.50;90.98;96510.97;6170391;23;20005;-74
2023/02/09 16:52:45;;;;;;;24.55;14.35;;;;;;;-3.65;91.29;96506.38;6171110;23;20088;-75
2023/02/09 16:55:23;;;;;;;21.15;13.68;;;;;;;-3.50;91.88;96506.72;6171575;23;20048;-74
2023/02/09 16:57:53;;;;;;;79.30;30.27;;;;;;;-3.51;92.38;96509.31;6170553;23;20013;-74
2023/02/09 17:00:20;;;;;;;113.43;43.05;;;;;;;-3.95;94.04;96493.75;6171747;23;20080;-74
2023/02/09 17:02:58;;;;;;;65.32;28.20;;;;;;;-3.78;94.17;96508.44;6170975;23;20087;-73
2023/02/09 17:05:27;;;;;;;38.87;18.63;;;;;;;-3.82;95.08;96515.28;6169688;23;20904;-74
2023/02/09 17:08:05;;;;;;;66.63;30.25;;;;;;;-3.95;95.87;96508.94;6169570;23;20112;-75
2023/02/09 17:10:33;;;;;;;53.38;23.88;;;;;;;-3.87;96.21;96519.66;6171200;23;20343;-74
2023/02/09 17:13:03;;;;;;;60.40;28.83;;;;;;;-3.93;96.15;96511.44;6171507;23;20008;-76
2023/02/09 17:15:30;;;;;;;62.13;30.15;;;;;;;-3.93;96.40;96513.97;6170529;23;20005;-74
2023/02/09 17:17:58;;;;;;;67.72;33.17;;;;;;;-4.07;96.99;96514.34;6168978;23;20005;-75
2023/02/09 17:20:26;;;;;;;121.60;49.40;;;;;;;-4.35;97.61;96519.38;6169678;23;20045;-74
2023/02/09 17:22:54;;;;;;;50.35;26.70;;;;;;;-4.52;98.30;96525.75;6168153;23;20076;-75
2023/02/09 17:25:21;;;;;;;56.83;25.70;;;;;;;-4.47;99.09;96529.84;6163679;23;20527;-73
2023/02/09 17:27:46;;;;;;;106.82;44.50;;;;;;;-4.34;99.05;96527.78;6169214;23;20005;-75
2023/02/09 17:30:17;;;;;;;104.72;43.72;;;;;;;-4.54;99.10;96523.28;6170810;23;20575;-73
2023/02/09 17:32:46;;;;;;;31.23;16.98;;;;;;;-4.55;98.04;96524.13;6170785;23;20017;-73
2023/02/09 17:35:19;;;;;;;46.85;22.83;;;;;;;-4.29;96.22;96524.25;6168881;23;20016;-75
2023/02/09 17:37:45;;;;;;;18.58;10.95;;;;;;;-4.28;93.91;96538.56;6170013;23;20060;-74
2023/02/09 17:40:13;;;;;;;30.17;16.42;;;;;;;-4.47;95.27;96537.41;6166121;23;20005;-76
2023/02/09 17:42:39;;;;;;;16.95;9.50;;;;;;;-4.54;94.88;96527.50;6169778;23;20004;-76
2023/02/09 17:45:20;;;;;;;16.73;8.30;;;;;;;-4.32;93.45;96531.09;6168739;23;20005;-75
2023/02/09 17:47:47;;;;;;;10.82;8.20;;;;;;;-4.26;92.26;96526.69;6171005;23;20001;-74
2023/02/09 17:50:13;;;;;;;13.38;8.65;;;;;;;-4.46;93.16;96533.16;6169896;23;20097;-75
2023/02/09 17:52:38;;;;;;;11.65;7.97;;;;;;;-4.48;93.80;96529.84;6169999;23;20012;-74
2023/02/09 17:55:04;;;;;;;10.55;7.55;;;;;;;-4.35;92.79;96537.06;6169988;23;20001;-73
2023/02/09 17:57:29;;;;;;;12.32;7.93;;;;;;;-4.45;93.64;96529.78;6170184;23;20009;-73
2023/02/09 17:59:54;;;;;;;13.45;8.63;;;;;;;-4.36;94.22;96524.47;6169824;23;20218;-73
2023/02/09 18:02:20;;;;;;;23.23;9.38;;;;;;;-4.09;92.97;96525.41;6169695;23;20503;-75
2023/02/09 18:04:45;;;;;;;10.15;7.60;;;;;;;-4.16;91.84;96518.84;6170079;23;20012;-75
2023/02/09 18:07:12;;;;;;;10.25;7.22;;;;;;;-4.38;93.00;96532.09;6167593;23;20051;-74
2023/02/09 18:09:38;;;;;;;11.57;8.05;;;;;;;-4.55;96.46;96533.41;6170184;23;20004;-75
2023/02/09 18:12:09;;;;;;;11.80;7.25;;;;;;;-4.76;96.39;96542.41;6170329;23;20020;-74
2023/02/09 18:14:34;;;;;;;11.20;7.97;;;;;;;-4.67;95.68;96528.69;6170154;23;20454;-73
2023/02/09 18:17:00;;;;;;;14.63;10.07;;;;;;;-4.68;95.42;96539.66;6170497;23;20009;-74
2023/02/09 18:19:26;;;;;;;42.10;15.70;;;;;;;-5.36;96.79;96532.09;6169573;23;20044;-77
2023/02/09 18:21:59;;;;;;;29.08;12.50;;;;;;;-5.39;99.34;96527.97;6170936;23;20008;-75
2023/02/09 18:24:28;;;;;;;24.35;11.23;;;;;;;-5.17;100.00;96527.47;6170493;23;20001;-78
2023/02/09 18:26:53;;;;;;;23.10;10.38;;;;;;;-5.45;99.82;96533.16;6170656;23;20058;-77
2023/02/09 18:29:27;;;;;;;96.53;33.78;;;;;;;-5.40;100.00;96533.06;6170574;23;20008;-77
2023/02/09 18:31:54;;;;;;;64.05;22.15;;;;;;;-5.51;100.00;96530.78;6170937;23;20009;-75
2023/02/09 18:34:19;;;;;;;47.40;18.38;;;;;;;-5.42;100.00;96533.09;6171049;23;20020;-74
2023/02/09 18:36:45;;;;;;;49.95;22.52;;;;;;;-5.38;99.69;96531.31;6168713;23;20005;-77
2023/02/09 18:39:10;;;;;;;89.07;33.80;;;;;;;-5.48;99.64;96527.34;6168187;23;20585;-76
2023/02/09 18:41:36;;;;;;;59.67;25.83;;;;;;;-5.58;100.00;96523.38;6167681;23;20021;-76
2023/02/09 18:44:01;;;;;;;75.25;27.55;;;;;;;-5.78;99.94;96533.09;6169089;23;20388;-74
2023/02/09 18:46:26;;;;;;;106.13;38.08;;;;;;;-5.59;100.00;96521.75;6169135;23;20035;-78
2023/02/09 18:48:53;;;;;;;66.00;28.08;;;;;;;-5.68;100.00;96525.28;6169297;23;20009;-76
2023/02/09 18:51:18;;;;;;;46.70;19.17;;;;;;;-6.20;100.00;96519.75;6169143;23;20761;-75
2023/02/09 18:53:44;;;;;;;45.60;19.63;;;;;;;-6.14;100.00;96525.50;6169517;23;20032;-75
2023/02/09 18:56:20;;;;;;;30.67;14.95;;;;;;;-6.45;100.00;96524.44;6170770;23;20005;-76
2023/02/09 18:58:48;;;;;;;54.95;23.27;;;;;;;-6.19;100.00;96522.22;6166790;23;20008;-75
2023/02/09 19:01:13;;;;;;;148.07;55.53;;;;;;;-6.23;100.00;96522.34;6169485;23;20008;-76
2023/02/09 19:03:39;;;;;;;154.07;48.80;;;;;;;-6.39;100.00;96526.88;6168619;23;20060;-76
2023/02/09 19:06:08;;;;;;;92.30;30.15;;;;;;;-6.45;100.00;96527.78;6168569;23;20901;-76
2023/02/09 19:08:33;;;;;;;101.72;30.67;;;;;;;-6.31;100.00;96522.50;6167470;23;20013;-75
2023/02/09 19:10:59;;;;;;;90.35;32.40;;;;;;;-6.25;100.00;96526.56;6168276;23;20078;-76
2023/02/09 19:13:24;;;;;;;56.53;20.88;;;;;;;-6.25;100.00;96527.41;6167680;23;20517;-76
2023/02/09 19:15:49;;;;;;;50.67;23.85;;;;;;;-6.62;100.00;96534.03;6167792;23;20530;-76
2023/02/09 19:18:15;;;;;;;39.67;18.58;;;;;;;-6.62;100.00;96519.75;6168705;23;20016;-76
2023/02/09 19:20:40;;;;;;;35.53;18.00;;;;;;;-6.62;100.00;96524.78;6167139;23;20035;-76
2023/02/09 19:23:07;;;;;;;98.18;40.10;;;;;;;-6.72;100.00;96533.38;6168116;23;20001;-76
2023/02/09 19:25:33;;;;;;;32.45;15.65;;;;;;;-6.69;100.00;96530.81;6167609;23;20448;-76
2023/02/09 19:27:58;;;;;;;31.25;14.82;;;;;;;-6.74;100.00;96521.69;6166611;23;20005;-74
2023/02/09 19:30:25;;;;;;;23.30;11.93;;;;;;;-6.88;100.00;96521.09;6168014;23;20092;-77
2023/02/09 19:32:52;;;;;;;18.92;10.75;;;;;;;-6.73;100.00;96520.81;6167210;23;20001;-77
2023/02/09 19:35:20;;;;;;;19.00;9.93;;;;;;;-6.86;100.00;96514.34;6167477;23;20013;-76
2023/02/09 19:37:52;;;;;;;21.70;12.03;;;;;;;-6.73;100.00;96528.34;6168933;23;20339;-76
2023/02/09 19:40:20;;;;;;;22.63;12.13;;;;;;;-6.77;100.00;96526.75;6168765;23;20096;-76
2023/02/09 19:42:47;;;;;;;27.92;13.45;;;;;;;-6.76;100.00;96521.69;6167405;23;20100;-76
2023/02/09 19:45:13;;;;;;;43.08;18.77;;;;;;;-6.83;100.00;96522.66;6162456;23;20033;-76
2023/02/09 19:47:38;;;;;;;29.45;13.70;;;;;;;-7.08;100.00;96519.75;6164065;23;20012;-75
2023/02/09 19:50:04;;;;;;;28.48;13.25;;;;;;;-7.04;100.00;96521.38;6165911;23;20032;-76
2023/02/09 19:52:30;;;;;;;46.60;21.42;;;;;;;-7.05;100.00;96522.22;6167880;23;20001;-76
2023/02/09 19:54:55;;;;;;;52.17;24.75;;;;;;;-7.01;100.00;96528.03;6166895;23;20001;-76
2023/02/09 19:57:21;;;;;;;68.25;29.23;;;;;;;-7.00;100.00;96530.50;6167646;23;20005;-76
2023/02/09 19:59:47;;;;;;;44.65;20.02;;;;;;;-7.10;100.00;96523.16;6165563;23;20367;-77
2023/02/09 20:02:13;;;;;;;37.90;17.83;;;;;;;-7.22;100.00;96539.28;6164983;23;20036;-76
2023/02/09 20:04:39;;;;;;;44.65;20.20;;;;;;;-6.98;100.00;96541.41;6166158;23;20013;-76
2023/02/09 20:07:05;;;;;;;46.15;21.67;;;;;;;-7.26;100.00;96537.69;6167899;23;20444;-77
2023/02/09 20:09:31;;;;;;;49.08;22.92;;;;;;;-7.24;100.00;96535.13;6168254;23;20087;-76
2023/02/09 20:11:56;;;;;;;49.50;21.13;;;;;;;-6.89;100.00;96540.38;6168306;23;20008;-76
2023/02/09 20:14:22;;;;;;;25.83;13.32;;;;;;;-7.40;100.00;96534.56;6169170;23;20001;-76
2023/02/09 20:16:47;;;;;;;29.73;13.63;;;;;;;-7.39;100.00;96538.75;6168116;23;20005;-74
2023/02/09 20:19:12;;;;;;;24.42;11.82;;;;;;;-7.28;100.00;96538.53;6168604;23;20028;-74
2023/02/09 20:21:38;;;;;;;28.77;13.77;;;;;;;-7.25;100.00;96551.91;6167569;23;20001;-76
2023/02/09 20:24:08;;;;;;;31.50;17.30;;;;;;;-7.48;100.00;96547.25;6169093;23;20005;-76
2023/02/09 20:26:34;;;;;;;39.63;19.05;;;;;;;-7.63;100.00;96541.63;6167285;23;20431;-75
2023/02/09 20:29:01;;;;;;;50.53;26.65;;;;;;;-7.96;100.00;96542.13;6167357;23;20005;-76
2023/02/09 20:31:31;;;;;;;31.42;16.98;;;;;;;-7.70;100.00;96553.44;6168226;23;20016;-76
2023/02/09 20:33:57;;;;;;;25.63;12.75;;;;;;;-7.65;100.00;96553.38;6167210;23;20107;-74
2023/02/09 20:36:22;;;;;;;22.25;11.52;;;;;;;-7.52;100.00;96555.72;6169247;23;20013;-76
2023/02/09 20:38:48;;;;;;;26.75;13.27;;;;;;;-8.08;100.00;96553.97;6165324;23;20011;-76
2023/02/09 20:41:16;;;;;;;22.73;11.02;;;;;;;-7.96;100.00;96557.19;6167353;23;20048;-73
2023/02/09 20:46:55;;;;;;;35.28;14.57;;;;;;;-7.66;100.00;96561.78;6104787;23;20045;-74
2023/02/09 20:49:22;;;;;;;31.52;15.10;;;;;;;-7.75;100.00;96551.84;6107005;23;20010;-76
2023/02/09 20:51:48;;;;;;;20.88;11.07;;;;;;;-7.92;100.00;96558.78;6139705;23;20088;-76
2023/02/09 20:54:13;;;;;;;54.15;22.20;;;;;;;-7.68;100.00;96558.47;6169100;23;20479;-76
2023/02/09 20:56:39;;;;;;;36.83;16.92;;;;;;;-7.63;100.00;96556.69;6169601;23;20080;-76
2023/02/09 20:59:05;;;;;;;28.63;12.88;;;;;;;-7.62;100.00;96565.91;6169826;23;20055;-73
2023/02/09 21:01:31;;;;;;;51.75;23.55;;;;;;;-7.83;100.00;96566.22;6170430;23;20079;-73
2023/02/09 21:03:57;;;;;;;61.65;27.60;;;;;;;-7.81;100.00;96562.84;6169902;23;20499;-73
2023/02/09 21:06:23;;;;;;;40.67;18.08;;;;;;;-7.84;100.00;96557.03;6170131;23;20013;-73
2023/02/09 21:08:49;;;;;;;70.78;29.40;;;;;;;-7.82;100.00;96555.31;6168593;23;20082;-73
2023/02/09 21:11:16;;;;;;;68.80;31.67;;;;;;;-7.81;100.00;96559.50;6168896;23;20009;-73
2023/02/09 21:13:41;;;;;;;52.03;25.92;;;;;;;-7.95;100.00;96554.66;6169548;23;20036;-74
2023/02/09 21:16:08;;;;;;;25.25;13.68;;;;;;;-8.15;100.00;96552.38;6168813;23;20005;-75
2023/02/09 21:18:35;;;;;;;25.00;12.98;;;;;;;-8.28;100.00;96553.41;6167607;23;20619;-76
2023/02/09 21:21:05;;;;;;;24.00;12.60;;;;;;;-8.04;100.00;96550.59;6166690;23;20012;-75
2023/02/09 21:23:31;;;;;;;25.20;12.50;;;;;;;-7.97;100.00;96548.81;6170524;23;20714;-72
2023/02/09 21:26:08;;;;;;;22.80;10.95;;;;;;;-8.18;100.00;96551.59;6169320;23;20084;-72
2023/02/09 21:28:36;;;;;;;16.42;10.68;;;;;;;-8.02;100.00;96551.38;6169919;23;20325;-73
2023/02/09 21:31:11;;;;;;;19.58;10.25;;;;;;;-8.23;100.00;96541.63;6170288;23;20001;-72
2023/02/09 21:33:36;;;;;;;21.88;12.23;;;;;;;-8.03;100.00;96551.41;6170644;23;20059;-73
2023/02/09 21:36:02;;;;;;;23.70;12.20;;;;;;;-8.25;100.00;96543.31;6171234;23;20009;-72
2023/02/09 21:38:28;;;;;;;22.20;12.27;;;;;;;-8.20;100.00;96548.28;6171040;23;20019;-73
2023/02/09 21:40:53;;;;;;;27.23;13.60;;;;;;;-8.10;100.00;96559.88;6171603;23;20455;-73
2023/02/09 21:43:18;;;;;;;24.42;14.77;;;;;;;-8.07;100.00;96549.78;6170593;23;20015;-72
2023/02/09 21:45:44;;;;;;;28.58;15.93;;;;;;;-7.88;100.00;96550.38;6170343;23;20063;-73
2023/02/09 21:48:09;;;;;;;38.05;22.52;;;;;;;-7.63;100.00;96541.63;6170259;23;20335;-73
2023/02/09 21:50:34;;;;;;;20.38;12.65;;;;;;;-7.26;100.00;96542.72;6171313;23;20375;-73
2023/02/09 21:53:01;;;;;;;15.50;8.10;;;;;;;-6.82;100.00;96543.63;6171270;23;20001;-72
2023/02/09 21:55:27;;;;;;;34.95;19.30;;;;;;;-6.95;99.98;96553.09;6171364;23;20009;-75
2023/02/09 21:57:52;;;;;;;14.57;9.07;;;;;;;-6.87;99.19;96551.25;6170844;23;20009;-73